METAR AND TAF INFORMATION
METAR FOR LPMA
ADDS - METARS form results

(0254 UTC 07 April 2020)
Data provider http://aviationweather.gov/metar/data/
 
METAR text: LPMA 070230Z 25004KT 9999 FEW015 BKN060 19/16 Q1021
Conditions at: LPMA (FUNCHAL/MADEIRA , PT) observed 0230 UTC 07 April 2020
Temperature: 19.0°C (66°F)
Dewpoint: 16.0°C (61°F) [RH = 83%]
Pressure (altimeter): 30.15 inches Hg (1021.0 mb)
Winds: from the WSW (250 degrees) at 5 MPH (4 knots; 2.1 m/s)
Visibility: 6 or more miles (10+ km)
Ceiling: 6000 feet AGL
Clouds: few clouds at 1500 feet AGL
broken clouds at 6000 feet AGL
Weather: no significant weather observed at this time

METAR text: LPMA 070200Z VRB02KT 9999 FEW015 BKN060 19/16 Q1021
Conditions at: LPMA (FUNCHAL/MADEIRA , PT) observed 0200 UTC 07 April 2020
Temperature: 19.0°C (66°F)
Dewpoint: 16.0°C (61°F) [RH = 83%]
Pressure (altimeter): 30.15 inches Hg (1021.0 mb)
Winds: variable direction winds at 2 MPH (2 knots; 1.0 m/s)
Visibility: 6 or more miles (10+ km)
Ceiling: 6000 feet AGL
Clouds: few clouds at 1500 feet AGL
broken clouds at 6000 feet AGL
Weather: no significant weather observed at this time

Forecast for: LPMA (FUNCHAL/MADEIRA , PT)
Text: TAF LPMA 062300Z 0700/0724 VRB05KT 9999 SCT016
Forecast period: 0000 to 0900 UTC 07 April 2020
Forecast type: FROM: standard forecast or significant change
Winds: variable direction winds at 6 MPH (5 knots; 2.6 m/s)
Visibility: 6 or more miles 10+ km)
Ceiling: at least 12,000 feet AGL
Clouds: scattered clouds at 1600 feet AGL
Weather: no significant weather forecast for this period
Text: TEMPO 0700/0712 BKN013
Forecast period: 0000 to 1200 UTC 07 April 2020
Forecast type: TEMPORARY: The following changes expected for less than half the time period
Visibility: missing
Ceiling: 1300 feet AGL
Clouds: broken clouds at 1300 feet AGL
Weather: no significant weather forecast for this period
Text: BECMG 0709/0712 21012KT
Forecast period: 0900 UTC 07 April 2020 to 0000 UTC 08 April 2020
Forecast type: BECOMING: Conditions expected to become as follows by 1200 UTC 07 April 2020
Winds: from the SSW (210 degrees) at 14 MPH (12 knots; 6.2 m/s)
Visibility: 6 or more miles 10+ km)
Ceiling: at least 12,000 feet AGL
Clouds: scattered clouds at 1600 feet AGL
Weather: no significant weather forecast for this period

 AIRPORT MAP

 RUNWAY INFORMATION
Runway 05 Runway length 9110 ft Runway width 148 ft
Runway elevation 147 ft Runway displaced threshold 480 ft Runway heading 45
Runway 23 Runway length 9110 ft Runway width 148 ft
Runway elevation 192 ft Runway displaced threshold 490 ft Runway heading 225

 AIRPORT FREQUENCIES
Type APP Name APP Frequency 119.2 MHZ
Type TWR Name TWR Frequency 118.35 MHZ

 AIRPORT NEAR NAVIGATION AIDS
Type VOR-DME Name Madeira Frequency 112200 KHZ
Type NDB Name Madeira Frequency 318 KHZ



Powered by Virtual Airlines Manager [v2.6.2]